Time;durP1;ratioP1;P1;durP2;ratioP2;P2;SDS_P1;SDS_P2;PMS_P1;PMS_P2;Temp;Humidity;BMP_temperature;BMP_pressure;BME280_temperature;BME280_humidity;BME280_pressure;Samples;Min_cycle;Max_cycle;Signal;HPM_P1;HPM_P2
2022/05/12 00:00:24;;;;;;;;;;;;;;;25.76;42.92;94396.13;5014024;28;9449;-56
2022/05/12 00:03:04;;;;;;;;;;;;;;;25.74;43.67;94393.91;5025686;28;9070;-57
2022/05/12 00:05:32;;;;;;;;;;;;;;;25.74;43.69;94399.41;5011600;28;7220;-56
2022/05/12 00:07:58;;;;;;;;;;;;;;;25.73;43.23;94394.41;5010566;28;8717;-57
2022/05/12 00:10:25;;;;;;;;;;;;;;;25.75;43.82;94394.66;5026667;28;7685;-57
2022/05/12 00:12:58;;;;;;;;;;;;;;;25.74;42.99;94396.66;5013980;28;7258;-57
2022/05/12 00:15:28;;;;;;;;;;;;;;;25.72;43.52;94390.91;5028140;28;9519;-57
2022/05/12 00:18:06;;;;;;;;;;;;;;;25.73;43.75;94391.66;5024293;28;7276;-56
2022/05/12 00:20:49;;;;;;;;;;;;;;;25.74;43.64;94390.38;5024973;28;7283;-57
2022/05/12 00:23:36;;;;;;;;;;;;;;;25.74;43.68;94395.91;5020846;28;7070;-56
2022/05/12 00:26:19;;;;;;;;;;;;;;;25.69;43.09;94391.91;5025928;28;9149;-57
2022/05/12 00:28:46;;;;;;;;;;;;;;;25.71;44.09;94394.91;5027002;28;7294;-57
2022/05/12 00:31:14;;;;;;;;;;;;;;;25.71;43.20;94394.91;5018104;28;8810;-57
2022/05/12 00:33:40;;;;;;;;;;;;;;;25.69;43.39;94404.94;5015152;28;7100;-57
2022/05/12 00:36:06;;;;;;;;;;;;;;;25.68;43.37;94401.47;5020476;28;8975;-56
2022/05/12 00:38:32;;;;;;;;;;;;;;;25.69;43.34;94402.94;5009712;28;9538;-57
2022/05/12 00:40:58;;;;;;;;;;;;;;;25.69;43.63;94400.19;5028750;28;7245;-57
2022/05/12 00:43:45;;;;;;;;;;;;;;;25.68;43.69;94395.94;5019725;28;7420;-57
2022/05/12 00:46:44;;;;;;;;;;;;;;;25.69;43.52;94407.69;5016145;28;9060;-57
2022/05/12 00:49:28;;;;;;;;;;;;;;;25.69;43.81;94415.97;4992455;28;9068;-57
2022/05/12 00:52:33;;;;;;;;;;;;;;;25.71;43.10;94408.69;5008431;28;7672;-56
2022/05/12 00:55:08;;;;;;;;;;;;;;;25.71;43.19;94422.47;5007352;28;7271;-57
2022/05/12 00:57:43;;;;;;;;;;;;;;;25.67;44.12;94427.50;4997926;28;7299;-57
2022/05/12 01:00:13;;;;;;;;;;;;;;;25.66;44.01;94426.00;5006465;28;9101;-57
2022/05/12 01:02:45;;;;;;;;;;;;;;;25.66;43.56;94425.25;5009992;28;9455;-56
2022/05/12 01:05:13;;;;;;;;;;;;;;;25.63;43.71;94426.28;4992470;28;7368;-57
2022/05/12 01:07:40;;;;;;;;;;;;;;;25.63;44.27;94423.50;4994984;28;9480;-57
2022/05/12 01:10:09;;;;;;;;;;;;;;;25.62;43.92;94420.00;5011195;28;9372;-57
2022/05/12 01:12:38;;;;;;;;;;;;;;;25.63;43.49;94418.75;4995843;28;9110;-57
2022/05/12 01:15:06;;;;;;;;;;;;;;;25.63;43.39;94427.03;5004486;28;7518;-57
2022/05/12 01:17:48;;;;;;;;;;;;;;;25.65;43.34;94426.50;4995174;28;8958;-57
2022/05/12 01:20:15;;;;;;;;;;;;;;;25.61;43.30;94415.78;4986556;28;9295;-57
2022/05/12 01:22:49;;;;;;;;;;;;;;;25.61;43.63;94424.03;4994351;28;9526;-56
2022/05/12 01:25:24;;;;;;;;;;;;;;;25.63;43.98;94426.28;5006581;28;8631;-56
2022/05/12 01:27:51;;;;;;;;;;;;;;;25.61;43.88;94428.78;5012925;28;9053;-57
2022/05/12 01:30:21;;;;;;;;;;;;;;;25.60;43.52;94438.31;5032327;28;9144;-57
2022/05/12 01:32:59;;;;;;;;;;;;;;;25.58;43.29;94435.34;5015437;28;7371;-57
2022/05/12 01:35:25;;;;;;;;;;;;;;;25.58;44.21;94441.56;5005695;28;7280;-56
2022/05/12 01:38:13;;;;;;;;;;;;;;;25.58;43.65;94440.84;5031783;28;8343;-57
2022/05/12 01:40:41;;;;;;;;;;;;;;;25.56;43.29;94441.31;5011647;28;7270;-57
2022/05/12 01:43:10;;;;;;;;;;;;;;;25.58;44.07;94449.09;5022179;28;7492;-58
2022/05/12 01:45:37;;;;;;;;;;;;;;;25.57;43.95;94445.59;5032333;28;8844;-57
2022/05/12 01:48:09;;;;;;;;;;;;;;;25.55;44.23;94450.09;5010339;28;6928;-57
2022/05/12 01:50:38;;;;;;;;;;;;;;;25.57;43.30;94459.38;5026347;28;8992;-57
2022/05/12 01:53:05;;;;;;;;;;;;;;;25.58;43.58;94452.59;5015293;28;8991;-57
2022/05/12 01:55:31;;;;;;;;;;;;;;;25.57;43.76;94455.84;5018748;28;8434;-57
2022/05/12 01:57:57;;;;;;;;;;;;;;;25.56;43.81;94460.59;5017460;28;9768;-56
2022/05/12 02:00:29;;;;;;;;;;;;;;;25.55;44.09;94450.09;5018837;28;9074;-57
2022/05/12 02:03:00;;;;;;;;;;;;;;;25.54;43.84;94446.59;5025780;28;7149;-57
2022/05/12 02:05:35;;;;;;;;;;;;;;;25.52;43.75;94453.88;5004188;28;7807;-56
2022/05/12 02:08:02;;;;;;;;;;;;;;;25.54;43.87;94448.59;5026521;28;6999;-57
2022/05/12 02:10:37;;;;;;;;;;;;;;;25.53;43.49;94458.88;5014866;28;9059;-57
2022/05/12 02:13:09;;;;;;;;;;;;;;;25.51;44.13;94466.91;5011199;28;7264;-57
2022/05/12 02:15:36;;;;;;;;;;;;;;;25.52;44.17;94467.63;5012334;28;9016;-57
2022/05/12 02:18:02;;;;;;;;;;;;;;;25.54;44.19;94463.13;5028115;28;7023;-56
2022/05/12 02:20:31;;;;;;;;;;;;;;;25.54;43.99;94471.38;5012518;28;9034;-56
2022/05/12 02:23:00;;;;;;;;;;;;;;;25.54;44.15;94465.88;5029866;28;7062;-57
2022/05/12 02:25:31;;;;;;;;;;;;;;;25.53;43.93;94472.66;5013153;28;7446;-57
2022/05/12 02:28:05;;;;;;;;;;;;;;;25.51;44.37;94464.16;5014567;28;6866;-57
2022/05/12 02:30:50;;;;;;;;;;;;;;;25.52;43.82;94471.16;5026357;28;9372;-57
2022/05/12 02:33:16;;;;;;;;;;;;;;;25.54;43.72;94473.38;5006418;28;9092;-57
2022/05/12 02:35:43;;;;;;;;;;;;;;;25.50;44.38;94470.91;5027526;28;9428;-57
2022/05/12 02:38:13;;;;;;;;;;;;;;;25.55;44.16;94472.16;5014295;28;7481;-57
2022/05/12 02:40:44;;;;;;;;;;;;;;;25.57;43.18;94466.88;5020627;28;8798;-57
2022/05/12 02:43:24;;;;;;;;;;;;;;;25.58;43.46;94462.88;5008678;28;9369;-57
2022/05/12 02:46:04;;;;;;;;;;;;;;;25.57;43.39;94477.88;5014541;28;7208;-56
2022/05/12 02:48:34;;;;;;;;;;;;;;;25.56;43.36;94479.13;5026818;28;7787;-57
2022/05/12 02:51:07;;;;;;;;;;;;;;;25.55;43.70;94474.91;5010683;28;7697;-57
2022/05/12 02:53:43;;;;;;;;;;;;;;;25.56;43.50;94482.63;5027388;28;8649;-56
2022/05/12 02:56:10;;;;;;;;;;;;;;;25.54;43.62;94481.66;5011155;28;9295;-57
2022/05/12 02:58:36;;;;;;;;;;;;;;;25.56;43.84;94484.63;5024784;28;7553;-57
2022/05/12 03:01:05;;;;;;;;;;;;;;;25.53;43.64;94486.44;5027920;28;8893;-56
2022/05/12 03:03:35;;;;;;;;;;;;;;;25.55;43.62;94483.16;5014649;28;7281;-56
2022/05/12 03:06:02;;;;;;;;;;;;;;;25.52;43.73;94481.41;5013960;28;9205;-56
2022/05/12 03:08:28;;;;;;;;;;;;;;;25.54;43.48;94481.66;5031859;28;7841;-56
2022/05/12 03:10:54;;;;;;;;;;;;;;;25.52;43.69;94487.66;5012793;28;9281;-56
2022/05/12 03:13:20;;;;;;;;;;;;;;;25.55;43.31;94480.41;5027936;28;8839;-56
2022/05/12 03:15:46;;;;;;;;;;;;;;;25.52;43.36;94479.41;5010699;28;9165;-56
2022/05/12 03:18:24;;;;;;;;;;;;;;;25.53;43.89;94478.16;5011268;28;9334;-57
2022/05/12 03:20:51;;;;;;;;;;;;;;;25.55;43.88;94485.91;5013308;28;8874;-57
2022/05/12 03:23:24;;;;;;;;;;;;;;;25.55;43.70;94491.41;5013823;28;9238;-57
2022/05/12 03:25:57;;;;;;;;;;;;;;;25.52;43.72;94487.66;5013824;28;9432;-56
2022/05/12 03:28:27;;;;;;;;;;;;;;;25.52;43.56;94493.19;5029400;28;8223;-56
2022/05/12 03:31:05;;;;;;;;;;;;;;;25.50;43.62;94487.44;5021538;28;6864;-56
2022/05/12 03:33:35;;;;;;;;;;;;;;;25.50;43.27;94494.94;5013020;28;8867;-57
2022/05/12 03:36:07;;;;;;;;;;;;;;;25.49;43.42;94496.22;5025970;28;9303;-56
2022/05/12 03:38:35;;;;;;;;;;;;;;;25.49;43.18;94507.22;5005482;28;9193;-56
2022/05/12 03:41:01;;;;;;;;;;;;;;;25.49;44.21;94504.47;5011720;28;7493;-56
2022/05/12 03:46:23;;;;;;;;;;;;;;;25.49;44.13;94512.72;5030252;28;7251;-56
2022/05/12 03:48:52;;;;;;;;;;;;;;;25.51;43.94;94510.97;5034654;28;7305;-57
2022/05/12 03:51:18;;;;;;;;;;;;;;;25.52;44.00;94520.72;5004591;28;9015;-57
2022/05/12 03:53:45;;;;;;;;;;;;;;;25.52;43.83;94517.22;5020536;28;9449;-57
2022/05/12 03:56:14;;;;;;;;;;;;;;;25.49;43.39;94521.72;5017968;28;9156;-57
2022/05/12 03:58:41;;;;;;;;;;;;;;;25.49;43.51;94516.22;5025065;28;7191;-56
2022/05/12 04:01:08;;;;;;;;;;;;;;;25.49;43.89;94521.00;5008889;28;7001;-56
2022/05/12 04:03:34;;;;;;;;;;;;;;;25.49;43.08;94524.47;5005805;28;6872;-56
2022/05/12 04:06:04;;;;;;;;;;;;;;;25.48;43.92;94528.50;5009363;28;7358;-57
2022/05/12 04:08:30;;;;;;;;;;;;;;;25.48;43.82;94520.25;5010968;28;7323;-57
2022/05/12 04:10:56;;;;;;;;;;;;;;;25.48;43.48;94525.00;5010034;28;9020;-57
2022/05/12 04:13:23;;;;;;;;;;;;;;;25.49;43.80;94526.50;5013135;28;8824;-56
2022/05/12 04:15:49;;;;;;;;;;;;;;;25.48;43.79;94525.75;5017551;28;7279;-57
2022/05/12 04:18:15;;;;;;;;;;;;;;;25.48;43.53;94533.25;5033277;28;8626;-56
2022/05/12 04:20:42;;;;;;;;;;;;;;;25.47;43.73;94524.25;5023629;28;7072;-56
2022/05/12 04:23:14;;;;;;;;;;;;;;;25.47;43.68;94524.25;5029183;28;7912;-56
2022/05/12 04:25:44;;;;;;;;;;;;;;;25.46;43.19;94531.00;5030593;28;7227;-57
2022/05/12 04:28:11;;;;;;;;;;;;;;;25.46;43.70;94525.50;5028670;28;7520;-57
2022/05/12 04:30:40;;;;;;;;;;;;;;;25.46;43.68;94524.75;5029895;28;7253;-56
2022/05/12 04:35:51;;;;;;;;;;;;;;;25.46;43.20;94533.00;5028274;28;7091;-56
2022/05/12 04:38:20;;;;;;;;;;;;;;;25.47;43.77;94540.75;5017272;28;9026;-57
2022/05/12 04:40:51;;;;;;;;;;;;;;;25.49;43.79;94543.75;5028452;28;9793;-56
2022/05/12 04:43:22;;;;;;;;;;;;;;;25.47;44.04;94551.03;5029583;28;7584;-56
2022/05/12 04:45:49;;;;;;;;;;;;;;;25.43;43.52;94554.03;5016700;28;8973;-56
2022/05/12 04:48:20;;;;;;;;;;;;;;;25.42;43.97;94560.81;5027414;28;7101;-55
2022/05/12 04:50:49;;;;;;;;;;;;;;;25.43;43.95;94563.06;5016877;28;9431;-55
2022/05/12 04:53:15;;;;;;;;;;;;;;;25.45;43.95;94564.56;5018041;28;8917;-56
2022/05/12 04:55:45;;;;;;;;;;;;;;;25.43;43.38;94568.56;5022194;28;7665;-56
2022/05/12 04:58:11;;;;;;;;;;;;;;;25.42;43.83;94582.84;5009671;28;8716;-55
2022/05/12 05:00:40;;;;;;;;;;;;;;;25.39;43.30;94578.31;5026098;28;8750;-56
2022/05/12 05:03:19;;;;;;;;;;;;;;;25.39;43.34;94584.59;5031471;28;7210;-56
2022/05/12 05:05:54;;;;;;;;;;;;;;;25.42;43.38;94582.84;5016673;28;9190;-56
2022/05/12 05:08:25;;;;;;;;;;;;;;;25.39;43.43;94572.81;5031495;28;7549;-55
2022/05/12 05:10:53;;;;;;;;;;;;;;;25.41;43.81;94581.31;5030603;28;7612;-56
2022/05/12 05:13:22;;;;;;;;;;;;;;;25.40;44.18;94582.59;5015525;28;7076;-56
2022/05/12 05:15:53;;;;;;;;;;;;;;;25.39;43.39;94583.81;5021283;28;7220;-54
2022/05/12 05:18:28;;;;;;;;;;;;;;;25.36;44.18;94582.06;5028956;28;8933;-56
2022/05/12 05:20:58;;;;;;;;;;;;;;;25.39;44.59;94597.59;5029697;28;7001;-55
2022/05/12 05:23:26;;;;;;;;;;;;;;;25.42;43.36;94593.88;5019439;28;7664;-56
2022/05/12 05:25:54;;;;;;;;;;;;;;;25.37;42.91;94598.09;5016043;28;10330;-56
2022/05/12 05:28:20;;;;;;;;;;;;;;;25.37;43.68;94605.59;5020126;28;10269;-56
2022/05/12 05:30:47;;;;;;;;;;;;;;;25.39;42.92;94611.34;5013659;28;9202;-56
2022/05/12 05:33:13;;;;;;;;;;;;;;;25.41;46.68;94609.59;5028927;28;7137;-57
2022/05/12 05:35:39;;;;;;;;;;;;;;;25.40;43.71;94613.59;5011847;28;7331;-56
2022/05/12 05:38:05;;;;;;;;;;;;;;;25.39;43.88;94616.88;5029517;28;9392;-56
2022/05/12 05:40:31;;;;;;;;;;;;;;;25.37;42.80;94613.88;5012018;28;7149;-55
2022/05/12 05:42:58;;;;;;;;;;;;;;;25.37;42.99;94608.34;5017975;28;6856;-55
2022/05/12 05:45:25;;;;;;;;;;;;;;;25.36;42.71;94626.13;5001965;28;6980;-56
2022/05/12 05:47:58;;;;;;;;;;;;;;;25.36;43.28;94626.88;5010368;28;9105;-55
2022/05/12 05:53:35;;;;;;;;;;;;;;;25.38;42.74;94631.91;5026585;28;8564;-55
2022/05/12 05:56:18;;;;;;;;;;;;;;;25.38;42.71;94637.41;5022463;28;9127;-55
2022/05/12 05:58:46;;;;;;;;;;;;;;;25.33;43.20;94630.66;5030601;28;9040;-55
2022/05/12 06:01:14;;;;;;;;;;;;;;;25.34;42.95;94628.63;5030249;28;8612;-55
2022/05/12 06:04:12;;;;;;;;;;;;;;;25.31;42.22;94633.16;5030001;28;7232;-55
2022/05/12 06:06:42;;;;;;;;;;;;;;;25.31;42.23;94627.66;4941167;28;7529;-55
2022/05/12 06:09:08;;;;;;;;;;;;;;;25.34;42.31;94636.88;4965896;28;7248;-55
2022/05/12 06:11:34;;;;;;;;;;;;;;;25.33;41.77;94640.91;4940514;28;9098;-56
2022/05/12 06:14:00;;;;;;;;;;;;;;;25.34;41.72;94636.88;4944832;28;7145;-56
2022/05/12 06:16:26;;;;;;;;;;;;;;;25.34;41.74;94642.41;4952223;28;9746;-56
2022/05/12 06:18:53;;;;;;;;;;;;;;;25.35;41.80;94649.41;4966942;28;7237;-57
2022/05/12 06:21:19;;;;;;;;;;;;;;;25.37;41.53;94644.16;4952240;28;7068;-56
2022/05/12 06:23:46;;;;;;;;;;;;;;;25.41;41.46;94641.88;4965501;28;7300;-56
2022/05/12 06:26:15;;;;;;;;;;;;;;;25.39;40.75;94650.66;4951021;28;7326;-56
2022/05/12 06:28:46;;;;;;;;;;;;;;;25.43;41.58;94651.19;4948547;28;8838;-57
2022/05/12 06:31:34;;;;;;;;;;;;;;;25.43;41.31;94650.44;4967126;28;7601;-56
2022/05/12 06:34:00;;;;;;;;;;;;;;;25.41;40.74;94650.91;4945354;28;9077;-56
2022/05/12 06:36:29;;;;;;;;;;;;;;;25.44;40.63;94657.44;4945882;28;7349;-57
2022/05/12 06:38:55;;;;;;;;;;;;;;;25.44;40.92;94646.44;4939688;28;9573;-56
2022/05/12 06:41:26;;;;;;;;;;;;;;;25.45;40.86;94652.69;4964652;28;7103;-56
2022/05/12 06:43:56;;;;;;;;;;;;;;;25.46;40.07;94646.69;5008527;28;9029;-57
2022/05/12 06:46:25;;;;;;;;;;;;;;;25.45;40.48;94656.19;5022020;28;6860;-57
2022/05/12 06:48:52;;;;;;;;;;;;;;;25.43;39.91;94656.69;4997886;28;7303;-56
2022/05/12 06:51:21;;;;;;;;;;;;;;;25.43;40.09;94653.19;5014453;28;7292;-55
2022/05/12 06:53:47;;;;;;;;;;;;;;;25.46;39.93;94641.16;5017350;28;7227;-56
2022/05/12 06:56:14;;;;;;;;;;;;;;;25.45;40.06;94650.66;5008570;28;8658;-55
2022/05/12 06:58:42;;;;;;;;;;;;;;;25.43;40.17;94647.66;5007241;28;8914;-56
2022/05/12 07:01:12;;;;;;;;;;;;;;;25.43;40.61;94644.91;5024984;28;7406;-56
2022/05/12 07:03:38;;;;;;;;;;;;;;;25.45;39.72;94647.91;5007991;28;9515;-55
2022/05/12 07:06:06;;;;;;;;;;;;;;;25.43;40.75;94644.91;5012164;28;9361;-56
2022/05/12 07:08:32;;;;;;;;;;;;;;;25.43;40.48;94645.69;5014470;28;7288;-56
2022/05/12 07:10:58;;;;;;;;;;;;;;;25.43;40.97;94645.69;5013986;28;7279;-55
2022/05/12 07:13:25;;;;;;;;;;;;;;;25.40;40.50;94645.91;5013746;28;9071;-56
2022/05/12 07:15:52;;;;;;;;;;;;;;;25.41;41.04;94648.16;5007543;28;7290;-56
2022/05/12 07:18:20;;;;;;;;;;;;;;;25.40;41.37;94646.63;5025576;28;9354;-56
2022/05/12 07:26:35;;;;;;;;;;;;;;;25.50;40.88;94647.16;5028951;28;7451;-56
2022/05/12 07:29:27;;;;;;;;;;;;;;;25.50;40.33;94644.41;5012715;28;9456;-56
2022/05/12 07:31:55;;;;;;;;;;;;;;;25.52;40.42;94644.66;5030352;28;7287;-56
2022/05/12 07:34:23;;;;;;;;;;;;;;;25.53;40.73;94648.91;5014148;28;7442;-56
2022/05/12 07:36:51;;;;;;;;;;;;;;;25.55;41.13;94642.91;5022998;28;7242;-56
2022/05/12 07:39:25;;;;;;;;;;;;;;;25.56;40.45;94647.13;5026212;28;9051;-56
2022/05/12 07:41:55;;;;;;;;;;;;;;;25.58;40.77;94645.38;5009192;28;7170;-56
2022/05/12 07:44:22;;;;;;;;;;;;;;;25.57;40.53;94643.91;5022146;28;9020;-56
2022/05/12 07:46:51;;;;;;;;;;;;;;;25.60;40.52;94648.38;5025049;28;9069;-56
2022/05/12 07:49:18;;;;;;;;;;;;;;;25.59;40.44;94644.16;5011012;28;7096;-56
2022/05/12 07:51:44;;;;;;;;;;;;;;;25.61;41.04;94646.38;5024500;28;8791;-56
2022/05/12 07:54:11;;;;;;;;;;;;;;;25.62;40.33;94645.16;5020622;28;7283;-56
2022/05/12 07:56:38;;;;;;;;;;;;;;;25.62;40.29;94645.88;5021813;28;7123;-56
2022/05/12 07:59:05;;;;;;;;;;;;;;;25.63;39.98;94652.13;5008769;28;8797;-56
2022/05/12 08:01:31;;;;;;;;;;;;;;;25.63;40.84;94655.66;5000798;28;8641;-56
2022/05/12 08:04:05;;;;;;;;;;;;;;;25.65;40.32;94661.41;5028285;28;8769;-56
2022/05/12 08:06:32;;;;;;;;;;;;;;;25.66;39.75;94664.91;5010223;28;9251;-56
2022/05/12 08:08:57;;;;;;;;;;;;;;;25.65;40.39;94666.91;5030012;28;8505;-56
2022/05/12 08:11:24;;;;;;;;;;;;;;;25.65;39.73;94666.16;5023910;28;9313;-56
2022/05/12 08:13:50;;;;;;;;;;;;;;;25.65;40.44;94674.41;5018875;28;8811;-56
2022/05/12 08:16:19;;;;;;;;;;;;;;;25.65;40.11;94675.19;5010023;28;8826;-56
2022/05/12 08:18:49;;;;;;;;;;;;;;;25.65;40.11;94671.66;5007963;28;6869;-56
2022/05/12 08:21:18;;;;;;;;;;;;;;;25.65;40.24;94688.94;5008768;28;7260;-57
2022/05/12 08:23:44;;;;;;;;;;;;;;;25.67;40.39;94686.44;5006957;28;7373;-56
2022/05/12 08:26:11;;;;;;;;;;;;;;;25.67;39.88;94675.41;5029175;28;9165;-56
2022/05/12 08:28:44;;;;;;;;;;;;;;;25.67;40.20;94686.44;5010590;28;9182;-56
2022/05/12 08:31:11;;;;;;;;;;;;;;;25.69;39.49;94678.41;5025795;28;6924;-56
2022/05/12 08:33:37;;;;;;;;;;;;;;;25.69;39.37;94685.94;5011491;28;9065;-56
2022/05/12 08:36:07;;;;;;;;;;;;;;;25.70;39.80;94677.19;5010496;28;7156;-56
2022/05/12 08:38:34;;;;;;;;;;;;;;;25.70;39.73;94674.41;5011276;28;8774;-56
2022/05/12 08:41:03;;;;;;;;;;;;;;;25.70;39.41;94673.66;5008987;28;7517;-56
2022/05/12 08:43:29;;;;;;;;;;;;;;;25.70;40.15;94679.94;5010984;28;7523;-56
2022/05/12 08:46:04;;;;;;;;;;;;;;;25.75;40.17;94679.16;5008198;28;7265;-56
2022/05/12 08:48:30;;;;;;;;;;;;;;;25.75;39.47;94683.94;5024816;28;9163;-56
2022/05/12 08:51:00;;;;;;;;;;;;;;;25.75;39.61;94675.66;5009391;28;7115;-56
2022/05/12 08:54:04;;;;;;;;;;;;;;;25.76;39.13;94677.91;5027074;28;6977;-56
2022/05/12 08:56:30;;;;;;;;;;;;;;;25.76;39.63;94683.41;5011720;28;7085;-56
2022/05/12 08:58:57;;;;;;;;;;;;;;;25.77;39.31;94675.91;5014512;28;9096;-56
2022/05/12 09:01:36;;;;;;;;;;;;;;;25.77;39.25;94673.91;5025933;28;8056;-56
2022/05/12 09:04:47;;;;;;;;;;;;;;;25.77;39.07;94684.94;5009939;28;8959;-56
2022/05/12 09:07:15;;;;;;;;;;;;;;;25.77;39.39;94682.19;5012954;28;7337;-56
2022/05/12 09:10:17;;;;;;;;;;;;;;;25.79;38.58;94678.91;5005584;28;9467;-56
2022/05/12 09:12:49;;;;;;;;;;;;;;;25.82;39.36;94681.38;5012749;28;7312;-56
2022/05/12 09:15:31;;;;;;;;;;;;;;;25.81;38.89;94679.16;5029884;28;7367;-56
2022/05/12 09:18:19;;;;;;;;;;;;;;;25.80;38.39;94683.16;5011225;28;9122;-56
2022/05/12 09:20:48;;;;;;;;;;;;;;;25.79;38.41;94676.91;5025671;28;8751;-57
2022/05/12 09:23:14;;;;;;;;;;;;;;;25.77;38.79;94665.66;5025166;28;7029;-57
2022/05/12 09:25:45;;;;;;;;;;;;;;;25.79;38.57;94676.16;5005369;28;8095;-57
2022/05/12 09:29:06;;;;;;;;;;;;;;;25.79;38.74;94671.41;5011095;28;8914;-56
2022/05/12 09:32:02;;;;;;;;;;;;;;;25.78;38.27;94683.66;5007585;28;9002;-56
2022/05/12 09:34:46;;;;;;;;;;;;;;;25.79;38.32;94674.16;4943223;28;8783;-58
2022/05/12 09:37:15;;;;;;;;;;;;;;;25.79;38.25;94671.41;4931592;28;7217;-56
2022/05/12 09:39:46;;;;;;;;;;;;;;;25.80;39.39;94663.84;4926714;28;6891;-56
2022/05/12 09:42:41;;;;;;;;;;;;;;;25.80;38.50;94666.63;4946572;28;9675;-56
2022/05/12 09:45:15;;;;;;;;;;;;;;;25.80;38.83;94667.38;4937040;28;9095;-57
2022/05/12 09:48:12;;;;;;;;;;;;;;;25.81;38.73;94668.88;4934295;28;9369;-56
2022/05/12 09:50:51;;;;;;;;;;;;;;;25.84;39.26;94672.63;4938744;28;7300;-56
2022/05/12 09:53:37;;;;;;;;;;;;;;;25.84;38.17;94667.09;4940945;28;7249;-56
2022/05/12 09:56:29;;;;;;;;;;;;;;;25.83;38.47;94658.09;4932658;28;7575;-56
2022/05/12 09:59:14;;;;;;;;;;;;;;;25.86;38.81;94659.84;4942270;28;9489;-56
2022/05/12 10:02:03;;;;;;;;;;;;;;;25.85;38.09;94661.09;4926091;28;7254;-56
2022/05/12 10:10:30;;;;;;;;;;;;;;;25.88;38.07;94651.81;4953145;28;9258;-57
2022/05/12 10:13:01;;;;;;;;;;;;;;;25.83;38.45;94647.09;5011700;28;7344;-56
2022/05/12 10:15:35;;;;;;;;;;;;;;;25.85;38.79;94650.06;5006478;28;9477;-56
2022/05/12 10:18:55;;;;;;;;;;;;;;;25.86;38.32;94646.06;5012565;28;9391;-56
2022/05/12 10:21:32;;;;;;;;;;;;;;;25.89;38.94;94636.78;4986235;28;7052;-57
2022/05/12 10:24:20;;;;;;;;;;;;;;;25.87;38.39;94641.28;4985789;28;9096;-57
2022/05/12 10:27:13;;;;;;;;;;;;;;;25.87;38.52;94628.28;4984494;28;8935;-57
2022/05/12 10:30:10;;;;;;;;;;;;;;;25.86;38.25;94629.53;4984501;28;9436;-57
2022/05/12 10:32:51;;;;;;;;;;;;;;;25.81;38.08;94624.03;4994881;28;7263;-57
2022/05/12 10:35:29;;;;;;;;;;;;;;;25.81;37.96;94624.81;5000035;28;9161;-57
2022/05/12 10:38:09;;;;;;;;;;;;;;;25.80;37.69;94620.53;4989589;28;9373;-57
2022/05/12 10:40:46;;;;;;;;;;;;;;;25.80;38.28;94620.53;4979644;28;7238;-57
2022/05/12 10:43:45;;;;;;;;;;;;;;;25.81;37.92;94624.03;4994314;28;7434;-57
2022/05/12 10:46:12;;;;;;;;;;;;;;;25.77;38.88;94616.06;4997448;28;7174;-57
2022/05/12 10:49:02;;;;;;;;;;;;;;;25.80;37.18;94606.75;4983754;28;9505;-57
2022/05/12 10:52:05;;;;;;;;;;;;;;;25.79;38.10;94610.78;4983980;28;7279;-57
2022/05/12 10:54:56;;;;;;;;;;;;;;;25.80;35.82;94608.75;4986332;28;8933;-57
2022/05/12 10:57:24;;;;;;;;;;;;;;;25.80;35.76;94601.25;5006709;28;7350;-58
2022/05/12 11:00:24;;;;;;;;;;;;;;;25.82;35.59;94598.72;5004795;28;9337;-57
2022/05/12 11:02:54;;;;;;;;;;;;;;;25.84;36.40;94598.22;5006689;28;7345;-57
2022/05/12 11:05:51;;;;;;;;;;;;;;;25.83;35.70;94589.22;5004594;28;7531;-57
2022/05/12 11:08:23;;;;;;;;;;;;;;;25.87;35.66;94592.44;5024839;28;9420;-57
2022/05/12 11:10:58;;;;;;;;;;;;;;;25.87;35.86;94586.94;5004262;28;7414;-57
2022/05/12 11:13:38;;;;;;;;;;;;;;;25.89;35.96;94580.91;5031373;28;9882;-58
2022/05/12 11:16:39;;;;;;;;;;;;;;;25.86;35.06;94579.19;5020598;28;9117;-57
2022/05/12 11:19:11;;;;;;;;;;;;;;;25.82;35.86;94582.19;5023293;28;7335;-57
2022/05/12 11:22:33;;;;;;;;;;;;;;;25.79;35.94;94572.22;5020865;28;9133;-57
2022/05/12 11:25:19;;;;;;;;;;;;;;;25.87;35.77;94573.16;4851568;29;7539;-57
2022/05/12 11:31:19;;;;;;;;;;;;;;;25.82;36.17;94575.94;4849714;29;7493;-57
2022/05/12 11:33:52;;;;;;;;;;;;;;;25.81;35.47;94566.94;4853421;29;6856;-57
2022/05/12 11:36:18;;;;;;;;;;;;;;;25.81;35.97;94568.94;4847536;29;6972;-56
2022/05/12 11:38:53;;;;;;;;;;;;;;;25.82;36.14;94570.41;4843141;29;8804;-57
2022/05/12 11:41:19;;;;;;;;;;;;;;;25.75;36.30;94568.94;4847246;29;9137;-57
2022/05/12 11:47:00;;;;;;;;;;;;;;;25.75;37.09;94557.91;4849194;29;7410;-56
2022/05/12 11:50:05;;;;;;;;;;;;;;;25.78;36.68;94554.16;4848332;29;6999;-57
2022/05/12 11:52:49;;;;;;;;;;;;;;;25.82;36.32;94554.63;4851155;29;7954;-56
2022/05/12 11:55:24;;;;;;;;;;;;;;;25.86;36.23;94548.88;4848205;29;7500;-56
2022/05/12 11:58:13;;;;;;;;;;;;;;;25.82;36.56;94548.38;4841176;29;7007;-56
2022/05/12 12:00:43;;;;;;;;;;;;;;;25.90;36.08;94539.06;4878729;28;9726;-56
2022/05/12 12:03:18;;;;;;;;;;;;;;;25.89;36.85;94543.09;5002621;28;9020;-56
2022/05/12 12:05:47;;;;;;;;;;;;;;;25.89;36.31;94534.81;5002803;28;7257;-55
2022/05/12 12:08:39;;;;;;;;;;;;;;;26.00;36.32;94534.75;5002806;28;9582;-56
2022/05/12 12:11:14;;;;;;;;;;;;;;;26.05;36.92;94534.00;5018866;28;9202;-56
2022/05/12 12:13:42;;;;;;;;;;;;;;;26.03;35.91;94530.25;5014867;28;8761;-56
2022/05/12 12:16:14;;;;;;;;;;;;;;;26.00;36.94;94531.25;5007842;28;9061;-56
2022/05/12 12:18:42;;;;;;;;;;;;;;;26.03;37.01;94530.25;5004984;28;6869;-56
2022/05/12 12:22:00;;;;;;;;;;;;;;;26.04;36.48;94526.97;5007597;28;7623;-56
2022/05/12 12:24:43;;;;;;;;;;;;;;;26.12;36.57;94519.66;5011104;28;7206;-56
2022/05/12 12:27:29;;;;;;;;;;;;;;;26.19;36.29;94525.91;5023572;28;9226;-56
2022/05/12 12:30:44;;;;;;;;;;;;;;;26.23;36.86;94521.59;4991178;28;7200;-56
2022/05/12 12:33:13;;;;;;;;;;;;;;;26.23;36.68;94521.59;4951369;28;9031;-56
2022/05/12 12:36:10;;;;;;;;;;;;;;;26.25;37.03;94521.09;4964268;28;7059;-56
2022/05/12 12:39:01;;;;;;;;;;;;;;;26.30;35.84;94517.53;4955016;28;7009;-56
2022/05/12 12:41:43;;;;;;;;;;;;;;;26.34;36.74;94507.72;4887592;29;9059;-56
2022/05/12 12:44:53;;;;;;;;;;;;;;;26.38;37.27;94513.00;4893175;29;8312;-56
2022/05/12 12:47:28;;;;;;;;;;;;;;;26.38;36.29;94504.72;4849179;29;9205;-56
2022/05/12 12:50:26;;;;;;;;;;;;;;;26.40;37.13;94510.47;4852527;29;9179;-56
2022/05/12 12:52:57;;;;;;;;;;;;;;;26.44;36.90;94502.66;4856050;29;9530;-56
2022/05/12 12:58:35;;;;;;;;;;;;;;;26.42;35.99;94502.44;4850992;29;7440;-56
2022/05/12 13:01:17;;;;;;;;;;;;;;;26.41;36.25;94498.91;4856643;29;8871;-57
2022/05/12 13:03:53;;;;;;;;;;;;;;;26.45;35.95;94493.09;4838074;29;8040;-56
2022/05/12 13:06:50;;;;;;;;;;;;;;;26.47;36.53;94496.13;4852802;29;7626;-56
2022/05/12 13:09:25;;;;;;;;;;;;;;;26.45;36.52;94493.88;4869265;29;9088;-56
2022/05/12 13:12:11;;;;;;;;;;;;;;;26.48;36.15;94489.34;4889532;29;7114;-56
2022/05/12 13:14:40;;;;;;;;;;;;;;;26.52;35.98;94487.03;4894521;29;8957;-56
2022/05/12 13:17:23;;;;;;;;;;;;;;;26.58;36.17;94479.47;4893025;29;7276;-56
2022/05/12 13:20:01;;;;;;;;;;;;;;;26.60;35.87;94480.44;4971380;28;9380;-56
2022/05/12 13:23:01;;;;;;;;;;;;;;;26.65;36.23;94476.13;4974941;28;7025;-56
2022/05/12 13:25:43;;;;;;;;;;;;;;;26.66;36.27;94475.66;5004514;28;9054;-56
2022/05/12 13:28:29;;;;;;;;;;;;;;;26.68;35.23;94464.09;5013656;28;9107;-57
2022/05/12 13:31:23;;;;;;;;;;;;;;;26.68;35.36;94462.06;5013208;28;8806;-56
2022/05/12 13:34:07;;;;;;;;;;;;;;;26.72;35.67;94464.53;5013433;28;7005;-56
2022/05/12 13:36:49;;;;;;;;;;;;;;;26.73;36.55;94464.03;5013344;28;9141;-56
2022/05/12 13:39:49;;;;;;;;;;;;;;;26.74;36.75;94457.28;5011717;28;6990;-56
2022/05/12 13:42:22;;;;;;;;;;;;;;;26.78;35.59;94449.44;5009039;28;7396;-56
2022/05/12 13:44:56;;;;;;;;;;;;;;;26.81;35.91;94447.69;5006896;28;7074;-56
2022/05/12 13:47:34;;;;;;;;;;;;;;;26.84;35.94;94435.59;5008288;28;7075;-56
2022/05/12 13:50:05;;;;;;;;;;;;;;;26.88;35.95;94439.56;5024017;28;7088;-56
2022/05/12 13:52:49;;;;;;;;;;;;;;;26.91;35.39;94429.50;5022594;28;7258;-56
2022/05/12 13:55:28;;;;;;;;;;;;;;;26.94;35.24;94438.75;5007166;28;7486;-56
2022/05/12 13:58:03;;;;;;;;;;;;;;;26.95;35.84;94434.75;5001734;28;8901;-56
2022/05/12 14:00:48;;;;;;;;;;;;;;;26.99;35.50;94429.66;4996944;28;7198;-56
2022/05/12 14:03:30;;;;;;;;;;;;;;;27.00;35.31;94428.38;4996086;28;9003;-56
2022/05/12 14:06:12;;;;;;;;;;;;;;;26.97;36.02;94421.16;5020859;28;7199;-56